Espanola, NM

2:25 PM MDT on October 23, 2014 (GMT -0600)
Los Alamos | Change Station
CLOSE
Current Station
Airport
Location: Los Alamos,
Elevation: 7172 ft
Nearby Weather Stations

Elev 7172 ft 35.88 °N, 106.27 °W | Updated 10 minutes ago

Clear
Clear
64 °F
Feels Like 64 °F
N
6
Wind Variable Wind from East

Today
High -- | Low -- °F
--% Chance of Precip.
Yesterday
High -- | Low -- °F
Precip. -- in
7:18 AM 6:18 PM
Waning Crescent, 0% visible
Pressure 30.30 in
Visibility 10.0 miles
Clouds Clear
Dew Point 32 °F
Humidity 30%
Rainfall 0.00 in
Snow Depth Not available.
UV 5 out of 12
Pollen 3.50 out of 12
Air Quality Not available.
Flu Activity Sporadic
METAR KLAM 232015Z AUTO 08005KT 10SM CLR 18/00 A3030 RMK AO2 T01790000

More Conditions Fewer Conditions

Pressure 30.30 in
Visibility 10.0 miles
Clouds Clear
Dew Point 32 °F
Humidity 30%
Rainfall 0.00 in
Snow Depth Not available.
UV 5 out of 12
Pollen 3.50 out of 12
Air Quality Not available.
Flu Activity Sporadic
METAR KLAM 232015Z AUTO 08005KT 10SM CLR 18/00 A3030 RMK AO2 T01790000

More Conditions Fewer Conditions

10-Day Weather Forecast

Almanac

Astronomy

Oct. 23, 2014 Rise Set
Actual Time 7:18 AM MDT 6:18 PM MDT
Civil Twilight 6:52 AM MDT 6:44 PM MDT
Nautical Twilight 6:22 AM MDT 7:14 PM MDT
Astronomical Twilight 5:52 AM MDT 7:44 PM MDT
Moon 7:01 AM MDT 6:22 PM MDT
Length of Visible Light 11h 52m
Length of Day
11h 00m
Tomorrow will be 2m 6s shorter.
Waning Crescent, 0% of the Moon is Illuminated
Today
Waning Crescent
Oct 23
New
Oct 30
First Quarter
Nov 6
Full
Nov 14
Last Quarter

Today's Extremes

State Highs State Lows

Community

WunderPhotos

Upload Photos

1,764,361 photos uploaded!

WunderBlogs® & News

By Dr. Jeff Masters
Director of Meteorology, Weather Underground
By Kari Strenfel
Meteorologist, Weather Underground
By Christopher C. Burt
Weather Historian, Weather Underground
October 23, 2014
October 23, 2014
October 23, 2014

Nearby

Snow Depth

Station Depth Elevation
Santa Fe 0 in 11445 ft
Wesner Springs 1 in 11120 ft
Bateman 0 in 9300 ft
Hopewell 0 in 10000 ft
Sierra Blanca 0 in 10280 ft

Earthquake Activity

City Distance Mag. Time & Date
Trinidad, Colorado 101 miles 2.7 10:33 PM MDT
2014-10-20
Minimum magnitude displayed is 2.5.

Coastal Water Temperatures

Place Temperature
No Stations Reporting

Nearby Weather Stations